KFA801 KBDL-CYHM
Flight info
| Callsign | KFA801 |
|---|---|
| Flight time | 1h 21m |
| Altitude | 28000 |
| Route | CTR DCT CAM DCT SYR DCT WOZEE DCT COLTS COLTS8 |
| Aircraft | B722/M-SDFGHRWY/C |
Departure
| Time | 2026-04-25 16:18 |
|---|---|
| Airport | Bradley International Airport (KBDL) |
Arrival
| Time | 2026-04-25 17:40 |
|---|---|
| Airport | John C. Munro Hamilton International Airport (CYHM) |
| Time | Latitude | Longitude | Altitude | Speed | Heading |
|---|---|---|---|---|---|
| 2026-04-25 15:54 | 41.92772 | -72.67884 | 217 ft | 0 kts | 224° |
| 2026-04-25 16:02 | 41.92781 | -72.67873 | 217 ft | 0 kts | 224° |
| 2026-04-25 16:04 | 41.92781 | -72.67872 | 217 ft | 1 kts | 224° |
| 2026-04-25 16:04 | 41.92798 | -72.67851 | 220 ft | 4 kts | 222° |
| 2026-04-25 16:04 | 41.92819 | -72.67827 | 213 ft | 4 kts | 221° |
| 2026-04-25 16:04 | 41.92839 | -72.67803 | 216 ft | 4 kts | 221° |
| 2026-04-25 16:05 | 41.92858 | -72.67778 | 208 ft | 4 kts | 227° |
| 2026-04-25 16:05 | 41.92860 | -72.67775 | 208 ft | 0 kts | 229° |
| 2026-04-25 16:14 | 41.92850 | -72.67799 | 213 ft | 8 kts | 249° |
| 2026-04-25 16:14 | 41.92887 | -72.67851 | 212 ft | 13 kts | 354° |
| 2026-04-25 16:14 | 41.93020 | -72.67872 | 216 ft | 26 kts | 343° |
| 2026-04-25 16:14 | 41.93136 | -72.68016 | 215 ft | 25 kts | 313° |
| 2026-04-25 16:15 | 41.93262 | -72.68194 | 216 ft | 27 kts | 314° |
| 2026-04-25 16:15 | 41.93401 | -72.68378 | 212 ft | 29 kts | 316° |
| 2026-04-25 16:15 | 41.93546 | -72.68571 | 211 ft | 30 kts | 314° |
| 2026-04-25 16:15 | 41.93692 | -72.68778 | 218 ft | 31 kts | 315° |
| 2026-04-25 16:16 | 41.93831 | -72.68983 | 214 ft | 31 kts | 305° |
| 2026-04-25 16:16 | 41.93984 | -72.69201 | 213 ft | 33 kts | 314° |
| 2026-04-25 16:16 | 41.94106 | -72.69365 | 211 ft | 11 kts | 318° |
| 2026-04-25 16:16 | 41.94145 | -72.69388 | 218 ft | 2 kts | 355° |
| 2026-04-25 16:17 | 41.94177 | -72.69382 | 212 ft | 8 kts | 20° |
| 2026-04-25 16:17 | 41.94219 | -72.69314 | 210 ft | 10 kts | 107° |
| 2026-04-25 16:17 | 41.94148 | -72.69188 | 216 ft | 38 kts | 133° |
| 2026-04-25 16:17 | 41.93815 | -72.68738 | 219 ft | 97 kts | 135° |
| 2026-04-25 16:18 | 41.93220 | -72.67927 | 222 ft | 143 kts | 137° |
| 2026-04-25 16:18 | 41.92983 | -72.67607 | 334 ft | 146 kts | 136° |
| 2026-04-25 16:18 | 41.91729 | -72.65890 | 1323 ft | 152 kts | 140° |
| 2026-04-25 16:18 | 41.90830 | -72.65390 | 2071 ft | 142 kts | 186° |
| 2026-04-25 16:19 | 41.89939 | -72.66166 | 2190 ft | 176 kts | 242° |
| 2026-04-25 16:19 | 41.89694 | -72.67866 | 2535 ft | 193 kts | 268° |
| 2026-04-25 16:19 | 41.89677 | -72.68377 | 2705 ft | 194 kts | 267° |
| 2026-04-25 16:20 | 41.89604 | -72.70264 | 2911 ft | 218 kts | 266° |
| 2026-04-25 16:20 | 41.89528 | -72.72237 | 3086 ft | 236 kts | 267° |
| 2026-04-25 16:20 | 41.90416 | -72.76354 | 4031 ft | 261 kts | 322° |
| 2026-04-25 16:21 | 41.91246 | -72.76976 | 4707 ft | 254 kts | 336° |
| 2026-04-25 16:21 | 41.91612 | -72.77175 | 5023 ft | 251 kts | 340° |
| 2026-04-25 16:21 | 41.93301 | -72.77754 | 6292 ft | 251 kts | 347° |
| 2026-04-25 16:21 | 41.95022 | -72.78329 | 7217 ft | 257 kts | 342° |
| 2026-04-25 16:22 | 41.96708 | -72.79140 | 8240 ft | 257 kts | 338° |
| 2026-04-25 16:22 | 41.98382 | -72.80020 | 9256 ft | 259 kts | 338° |
| 2026-04-25 16:22 | 42.00101 | -72.80865 | 9977 ft | 276 kts | 339° |
| 2026-04-25 16:22 | 42.02032 | -72.81780 | 9986 ft | 312 kts | 339° |
| 2026-04-25 16:23 | 42.04133 | -72.82784 | 10699 ft | 320 kts | 339° |
| 2026-04-25 16:23 | 42.06233 | -72.83804 | 11665 ft | 323 kts | 338° |
| 2026-04-25 16:23 | 42.08357 | -72.84838 | 12593 ft | 326 kts | 338° |
| 2026-04-25 16:23 | 42.10497 | -72.85875 | 13512 ft | 328 kts | 338° |
| 2026-04-25 16:24 | 42.12658 | -72.86921 | 14346 ft | 331 kts | 338° |
| 2026-04-25 16:24 | 42.14837 | -72.87980 | 15105 ft | 334 kts | 337° |
| 2026-04-25 16:24 | 42.17031 | -72.89048 | 15881 ft | 337 kts | 337° |
| 2026-04-25 16:24 | 42.19248 | -72.90126 | 16615 ft | 340 kts | 337° |
| 2026-04-25 16:25 | 42.21486 | -72.91215 | 17339 ft | 343 kts | 336° |
| 2026-04-25 16:25 | 42.22977 | -72.91941 | 17816 ft | 346 kts | 336° |
| 2026-04-25 16:25 | 42.26019 | -72.93424 | 18728 ft | 349 kts | 336° |
| 2026-04-25 16:25 | 42.28310 | -72.94542 | 19313 ft | 352 kts | 336° |
| 2026-04-25 16:26 | 42.30598 | -72.95751 | 19863 ft | 354 kts | 331° |
| 2026-04-25 16:26 | 42.32621 | -72.97609 | 20412 ft | 353 kts | 316° |
| 2026-04-25 16:26 | 42.34214 | -73.00126 | 20986 ft | 355 kts | 303° |
| 2026-04-25 16:26 | 42.35362 | -73.03102 | 21526 ft | 359 kts | 296° |
| 2026-04-25 16:27 | 42.36264 | -73.06265 | 22071 ft | 363 kts | 290° |
| 2026-04-25 16:27 | 42.37028 | -73.09541 | 22610 ft | 366 kts | 290° |
| 2026-04-25 16:27 | 42.37867 | -73.12791 | 23161 ft | 367 kts | 292° |
| 2026-04-25 16:27 | 42.38798 | -73.16021 | 23674 ft | 370 kts | 293° |
| 2026-04-25 16:28 | 42.39709 | -73.19282 | 24116 ft | 372 kts | 292° |
| 2026-04-25 16:28 | 42.40577 | -73.22590 | 24562 ft | 374 kts | 291° |
| 2026-04-25 16:28 | 42.41452 | -73.25915 | 24997 ft | 376 kts | 292° |
| 2026-04-25 16:28 | 42.42358 | -73.29246 | 25415 ft | 378 kts | 292° |
| 2026-04-25 16:29 | 42.43271 | -73.32594 | 25835 ft | 380 kts | 292° |
| 2026-04-25 16:29 | 42.44174 | -73.35972 | 26226 ft | 382 kts | 292° |
| 2026-04-25 16:29 | 42.45076 | -73.39370 | 26626 ft | 385 kts | 292° |
| 2026-04-25 16:29 | 42.45990 | -73.42781 | 27021 ft | 387 kts | 292° |
| 2026-04-25 16:30 | 42.46911 | -73.46214 | 27398 ft | 389 kts | 292° |
| 2026-04-25 16:30 | 42.47832 | -73.49668 | 27777 ft | 391 kts | 292° |
| 2026-04-25 16:30 | 42.48755 | -73.53139 | 28168 ft | 393 kts | 292° |
| 2026-04-25 16:30 | 42.49674 | -73.56601 | 28296 ft | 379 kts | 292° |
| 2026-04-25 16:31 | 42.50561 | -73.59941 | 28074 ft | 377 kts | 292° |
| 2026-04-25 16:31 | 42.52376 | -73.66765 | 28078 ft | 393 kts | 292° |
| 2026-04-25 16:32 | 42.54249 | -73.73864 | 28088 ft | 407 kts | 292° |
| 2026-04-25 16:32 | 42.56190 | -73.81221 | 28095 ft | 421 kts | 292° |
| 2026-04-25 16:33 | 42.58188 | -73.88827 | 28084 ft | 435 kts | 292° |
| 2026-04-25 16:33 | 42.60240 | -73.96666 | 28100 ft | 445 kts | 292° |
| 2026-04-25 16:34 | 42.62313 | -74.04604 | 28099 ft | 446 kts | 292° |
| 2026-04-25 16:34 | 42.64377 | -74.12539 | 28091 ft | 446 kts | 292° |
| 2026-04-25 16:35 | 42.66438 | -74.20489 | 28087 ft | 446 kts | 292° |
| 2026-04-25 16:35 | 42.68477 | -74.28381 | 28086 ft | 445 kts | 292° |
| 2026-04-25 16:36 | 42.70526 | -74.36331 | 28082 ft | 446 kts | 292° |
| 2026-04-25 16:36 | 42.72571 | -74.44298 | 28076 ft | 446 kts | 292° |
| 2026-04-25 16:37 | 42.74612 | -74.52276 | 28069 ft | 447 kts | 292° |
| 2026-04-25 16:37 | 42.76651 | -74.60272 | 28070 ft | 447 kts | 292° |
| 2026-04-25 16:38 | 42.78685 | -74.68278 | 28064 ft | 448 kts | 292° |
| 2026-04-25 16:38 | 42.80718 | -74.76304 | 28061 ft | 448 kts | 291° |
| 2026-04-25 16:39 | 42.82747 | -74.84346 | 28062 ft | 449 kts | 291° |
| 2026-04-25 16:39 | 42.84772 | -74.92395 | 28057 ft | 449 kts | 291° |
| 2026-04-25 16:40 | 42.86794 | -75.00460 | 28057 ft | 450 kts | 291° |
| 2026-04-25 16:40 | 42.88812 | -75.08537 | 28061 ft | 450 kts | 291° |
| 2026-04-25 16:41 | 42.90827 | -75.16633 | 28051 ft | 451 kts | 291° |
| 2026-04-25 16:41 | 42.93844 | -75.28803 | 28042 ft | 452 kts | 291° |
| 2026-04-25 16:42 | 42.95851 | -75.36935 | 28042 ft | 453 kts | 291° |
| 2026-04-25 16:42 | 42.97853 | -75.45081 | 28039 ft | 453 kts | 291° |
| 2026-04-25 16:43 | 42.99847 | -75.53183 | 28041 ft | 453 kts | 291° |
| 2026-04-25 16:43 | 43.01840 | -75.61364 | 28035 ft | 454 kts | 291° |
| 2026-04-25 16:44 | 43.03834 | -75.69552 | 28039 ft | 455 kts | 291° |
| 2026-04-25 16:44 | 43.05823 | -75.77761 | 28031 ft | 455 kts | 291° |
| 2026-04-25 16:45 | 43.07812 | -75.85993 | 28022 ft | 456 kts | 291° |
| 2026-04-25 16:45 | 43.09793 | -75.94227 | 28017 ft | 456 kts | 291° |
| 2026-04-25 16:46 | 43.11773 | -76.02483 | 28018 ft | 457 kts | 291° |
| 2026-04-25 16:46 | 43.13094 | -76.08011 | 28016 ft | 457 kts | 291° |
| 2026-04-25 16:47 | 43.15570 | -76.19100 | 28025 ft | 462 kts | 283° |
| 2026-04-25 16:47 | 43.15610 | -76.27978 | 28018 ft | 472 kts | 269° |
| 2026-04-25 16:48 | 43.14690 | -76.36908 | 28014 ft | 474 kts | 267° |
| 2026-04-25 16:48 | 43.14077 | -76.45873 | 28009 ft | 473 kts | 270° |
| 2026-04-25 16:49 | 43.13302 | -76.54837 | 28011 ft | 475 kts | 268° |
| 2026-04-25 16:49 | 43.12589 | -76.63814 | 27999 ft | 474 kts | 269° |
| 2026-04-25 16:50 | 43.12242 | -76.68309 | 27992 ft | 475 kts | 268° |
| 2026-04-25 16:50 | 43.11845 | -76.72809 | 27989 ft | 476 kts | 268° |
| 2026-04-25 16:50 | 43.11452 | -76.77310 | 27989 ft | 476 kts | 268° |
| 2026-04-25 16:50 | 43.11210 | -76.80294 | 27986 ft | 476 kts | 269° |
| 2026-04-25 16:51 | 43.10854 | -76.84801 | 27988 ft | 477 kts | 268° |
| 2026-04-25 16:51 | 43.10474 | -76.89309 | 27989 ft | 478 kts | 268° |
| 2026-04-25 16:51 | 43.10079 | -76.93819 | 27985 ft | 478 kts | 268° |
| 2026-04-25 16:51 | 43.09821 | -76.96808 | 27988 ft | 478 kts | 268° |
| 2026-04-25 16:52 | 43.09318 | -77.02856 | 27988 ft | 478 kts | 268° |
| 2026-04-25 16:52 | 43.08935 | -77.07375 | 27986 ft | 479 kts | 268° |
| 2026-04-25 16:52 | 43.08537 | -77.11894 | 27985 ft | 479 kts | 268° |
| 2026-04-25 16:52 | 43.08142 | -77.16424 | 27986 ft | 479 kts | 268° |
| 2026-04-25 16:53 | 43.07361 | -77.25488 | 27954 ft | 480 kts | 268° |
| 2026-04-25 16:53 | 43.06960 | -77.30019 | 27947 ft | 480 kts | 268° |
| 2026-04-25 16:53 | 43.06557 | -77.34550 | 27947 ft | 480 kts | 268° |
| 2026-04-25 16:54 | 43.06160 | -77.39085 | 27958 ft | 480 kts | 268° |
| 2026-04-25 16:54 | 43.05758 | -77.43625 | 27949 ft | 481 kts | 268° |
| 2026-04-25 16:54 | 43.05351 | -77.48155 | 27940 ft | 481 kts | 268° |
| 2026-04-25 16:54 | 43.04942 | -77.52691 | 27951 ft | 481 kts | 268° |
| 2026-04-25 16:55 | 43.04534 | -77.57234 | 27948 ft | 481 kts | 268° |
| 2026-04-25 16:55 | 43.04124 | -77.61774 | 27939 ft | 481 kts | 268° |
| 2026-04-25 16:55 | 43.03710 | -77.66318 | 27944 ft | 482 kts | 268° |
| 2026-04-25 16:55 | 43.03295 | -77.70859 | 27943 ft | 482 kts | 268° |
| 2026-04-25 16:56 | 43.02878 | -77.75402 | 27946 ft | 482 kts | 268° |
| 2026-04-25 16:56 | 43.02460 | -77.79945 | 27936 ft | 482 kts | 267° |
| 2026-04-25 16:56 | 43.02038 | -77.84496 | 27940 ft | 483 kts | 268° |
| 2026-04-25 16:56 | 43.01613 | -77.89049 | 27937 ft | 483 kts | 267° |
| 2026-04-25 16:57 | 43.01188 | -77.93601 | 27913 ft | 483 kts | 267° |
| 2026-04-25 16:57 | 43.00907 | -77.96616 | 27918 ft | 483 kts | 267° |
| 2026-04-25 16:57 | 43.00332 | -78.02714 | 27914 ft | 484 kts | 268° |
| 2026-04-25 16:57 | 42.99901 | -78.07271 | 27918 ft | 484 kts | 267° |
| 2026-04-25 16:58 | 42.99468 | -78.11835 | 27916 ft | 484 kts | 267° |
| 2026-04-25 16:58 | 42.99033 | -78.16398 | 27919 ft | 485 kts | 267° |
| 2026-04-25 16:58 | 42.98594 | -78.20970 | 27782 ft | 486 kts | 267° |
| 2026-04-25 16:58 | 42.98151 | -78.25551 | 27298 ft | 488 kts | 267° |
| 2026-04-25 16:59 | 42.97708 | -78.30144 | 26737 ft | 489 kts | 267° |
| 2026-04-25 16:59 | 42.97262 | -78.34751 | 26185 ft | 490 kts | 266° |
| 2026-04-25 16:59 | 42.96811 | -78.39373 | 25644 ft | 492 kts | 266° |
| 2026-04-25 16:59 | 42.96600 | -78.44017 | 25112 ft | 489 kts | 274° |
| 2026-04-25 17:00 | 42.96823 | -78.48643 | 24574 ft | 488 kts | 279° |
| 2026-04-25 17:00 | 42.97222 | -78.53258 | 24073 ft | 490 kts | 280° |
| 2026-04-25 17:00 | 42.97596 | -78.57825 | 23565 ft | 493 kts | 278° |
| 2026-04-25 17:00 | 42.97726 | -78.62577 | 22957 ft | 497 kts | 273° |
| 2026-04-25 17:01 | 42.97667 | -78.67233 | 22333 ft | 492 kts | 271° |
| 2026-04-25 17:01 | 42.97607 | -78.71910 | 21696 ft | 480 kts | 274° |
| 2026-04-25 17:01 | 42.97750 | -78.76344 | 21082 ft | 469 kts | 277° |
| 2026-04-25 17:01 | 42.97958 | -78.80745 | 20496 ft | 461 kts | 276° |
| 2026-04-25 17:02 | 42.98012 | -78.85088 | 19892 ft | 455 kts | 272° |
| 2026-04-25 17:02 | 42.97985 | -78.89385 | 19318 ft | 449 kts | 273° |
| 2026-04-25 17:02 | 42.98057 | -78.93615 | 18765 ft | 443 kts | 275° |
| 2026-04-25 17:02 | 42.98201 | -78.97797 | 18209 ft | 439 kts | 275° |
| 2026-04-25 17:03 | 42.98279 | -79.01940 | 17568 ft | 435 kts | 273° |
| 2026-04-25 17:03 | 42.98293 | -79.06054 | 16941 ft | 431 kts | 272° |
| 2026-04-25 17:03 | 42.98341 | -79.10132 | 16325 ft | 427 kts | 274° |
| 2026-04-25 17:03 | 42.98439 | -79.14173 | 15722 ft | 424 kts | 274° |
| 2026-04-25 17:04 | 42.98513 | -79.18177 | 15144 ft | 421 kts | 272° |
| 2026-04-25 17:04 | 42.98545 | -79.22152 | 14567 ft | 417 kts | 272° |
| 2026-04-25 17:04 | 42.98585 | -79.26100 | 13993 ft | 414 kts | 272° |
| 2026-04-25 17:04 | 42.98656 | -79.30014 | 13390 ft | 411 kts | 272° |
| 2026-04-25 17:05 | 42.98721 | -79.33901 | 12767 ft | 408 kts | 272° |
| 2026-04-25 17:05 | 42.98802 | -79.41591 | 11564 ft | 402 kts | 272° |
| 2026-04-25 17:05 | 42.98849 | -79.45358 | 10974 ft | 387 kts | 272° |
| 2026-04-25 17:06 | 42.98898 | -79.48947 | 10394 ft | 369 kts | 272° |
| 2026-04-25 17:06 | 42.98937 | -79.52382 | 9820 ft | 354 kts | 272° |
| 2026-04-25 17:06 | 42.98970 | -79.55623 | 9322 ft | 328 kts | 272° |
| 2026-04-25 17:06 | 42.99002 | -79.58628 | 8930 ft | 305 kts | 272° |
| 2026-04-25 17:07 | 42.99035 | -79.61438 | 8538 ft | 287 kts | 272° |
| 2026-04-25 17:07 | 42.99064 | -79.64095 | 8146 ft | 273 kts | 272° |
| 2026-04-25 17:07 | 42.99090 | -79.66639 | 7767 ft | 263 kts | 272° |
| 2026-04-25 17:07 | 42.99116 | -79.69088 | 7388 ft | 254 kts | 272° |
| 2026-04-25 17:08 | 42.99140 | -79.71460 | 7015 ft | 247 kts | 272° |
| 2026-04-25 17:08 | 42.99163 | -79.73783 | 6646 ft | 242 kts | 272° |
| 2026-04-25 17:08 | 42.99185 | -79.76069 | 6279 ft | 240 kts | 273° |
| 2026-04-25 17:08 | 42.99207 | -79.78348 | 5904 ft | 239 kts | 273° |
| 2026-04-25 17:09 | 42.99228 | -79.80614 | 5520 ft | 238 kts | 272° |
| 2026-04-25 17:09 | 42.99250 | -79.82884 | 5154 ft | 240 kts | 272° |
| 2026-04-25 17:09 | 42.99269 | -79.85157 | 5012 ft | 234 kts | 272° |
| 2026-04-25 17:09 | 42.99287 | -79.87339 | 4883 ft | 229 kts | 272° |
| 2026-04-25 17:10 | 42.99307 | -79.89518 | 4574 ft | 230 kts | 272° |
| 2026-04-25 17:10 | 42.99327 | -79.91715 | 4264 ft | 232 kts | 272° |
| 2026-04-25 17:10 | 42.99343 | -79.93936 | 3959 ft | 235 kts | 271° |
| 2026-04-25 17:10 | 42.99361 | -79.96189 | 3705 ft | 239 kts | 271° |
| 2026-04-25 17:11 | 42.99378 | -79.98445 | 3708 ft | 237 kts | 271° |
| 2026-04-25 17:11 | 42.99401 | -80.00691 | 3707 ft | 236 kts | 272° |
| 2026-04-25 17:11 | 42.99778 | -80.02839 | 3707 ft | 234 kts | 296° |
| 2026-04-25 17:11 | 43.00702 | -80.04646 | 3712 ft | 232 kts | 314° |
| 2026-04-25 17:12 | 43.01892 | -80.06129 | 3714 ft | 232 kts | 321° |
| 2026-04-25 17:12 | 43.03166 | -80.07474 | 3715 ft | 232 kts | 329° |
| 2026-04-25 17:12 | 43.04662 | -80.08208 | 3720 ft | 228 kts | 353° |
| 2026-04-25 17:12 | 43.06234 | -80.08128 | 3710 ft | 229 kts | 14° |
| 2026-04-25 17:13 | 43.07711 | -80.07231 | 3483 ft | 238 kts | 38° |
| 2026-04-25 17:13 | 43.08128 | -80.06778 | 3394 ft | 235 kts | 43° |
| 2026-04-25 17:13 | 43.09872 | -80.04108 | 2883 ft | 213 kts | 54° |
| 2026-04-25 17:13 | 43.10753 | -80.02672 | 2599 ft | 184 kts | 53° |
| 2026-04-25 17:14 | 43.11540 | -80.01468 | 2376 ft | 156 kts | 53° |
| 2026-04-25 17:14 | 43.12217 | -80.00417 | 2161 ft | 141 kts | 53° |
| 2026-04-25 17:14 | 43.12837 | -79.99454 | 1975 ft | 128 kts | 52° |
| 2026-04-25 17:14 | 43.13398 | -79.98570 | 1811 ft | 120 kts | 51° |
| 2026-04-25 17:15 | 43.13952 | -79.97708 | 1645 ft | 122 kts | 50° |
| 2026-04-25 17:15 | 43.14512 | -79.96832 | 1452 ft | 123 kts | 48° |
| 2026-04-25 17:15 | 43.15077 | -79.95963 | 1299 ft | 122 kts | 47° |
| 2026-04-25 17:15 | 43.15702 | -79.94991 | 1149 ft | 153 kts | 46° |
| 2026-04-25 17:16 | 43.16362 | -79.93956 | 1866 ft | 133 kts | 53° |
| 2026-04-25 17:16 | 43.17018 | -79.92832 | 1883 ft | 179 kts | 56° |
| 2026-04-25 17:16 | 43.17799 | -79.91210 | 1934 ft | 214 kts | 62° |
| 2026-04-25 17:16 | 43.18700 | -79.89607 | 2586 ft | 211 kts | 45° |
| 2026-04-25 17:17 | 43.19841 | -79.88353 | 3113 ft | 218 kts | 43° |
| 2026-04-25 17:17 | 43.20980 | -79.86857 | 3124 ft | 236 kts | 50° |
| 2026-04-25 17:17 | 43.22108 | -79.85043 | 3125 ft | 264 kts | 53° |
| 2026-04-25 17:17 | 43.23336 | -79.82990 | 3121 ft | 292 kts | 53° |
| 2026-04-25 17:18 | 43.24602 | -79.80842 | 3569 ft | 284 kts | 52° |
| 2026-04-25 17:18 | 43.25782 | -79.78759 | 3990 ft | 270 kts | 52° |
| 2026-04-25 17:18 | 43.26908 | -79.76688 | 4002 ft | 273 kts | 52° |
| 2026-04-25 17:18 | 43.28039 | -79.74573 | 4009 ft | 277 kts | 52° |
| 2026-04-25 17:19 | 43.29178 | -79.72448 | 4013 ft | 276 kts | 52° |
| 2026-04-25 17:19 | 43.30315 | -79.70334 | 4013 ft | 274 kts | 53° |
| 2026-04-25 17:19 | 43.31447 | -79.68233 | 4013 ft | 273 kts | 52° |
| 2026-04-25 17:19 | 43.32578 | -79.66139 | 4020 ft | 273 kts | 52° |
| 2026-04-25 17:20 | 43.33709 | -79.64047 | 4025 ft | 273 kts | 52° |
| 2026-04-25 17:20 | 43.34837 | -79.61954 | 4025 ft | 272 kts | 52° |
| 2026-04-25 17:20 | 43.35936 | -79.59923 | 4028 ft | 271 kts | 52° |
| 2026-04-25 17:20 | 43.37057 | -79.57846 | 4035 ft | 271 kts | 52° |
| 2026-04-25 17:21 | 43.38185 | -79.55764 | 4035 ft | 272 kts | 52° |
| 2026-04-25 17:21 | 43.39316 | -79.53671 | 4035 ft | 274 kts | 52° |
| 2026-04-25 17:21 | 43.40658 | -79.51833 | 4044 ft | 275 kts | 30° |
| 2026-04-25 17:21 | 43.42502 | -79.51204 | 4052 ft | 278 kts | 0° |
| 2026-04-25 17:22 | 43.44432 | -79.51516 | 4049 ft | 281 kts | 351° |
| 2026-04-25 17:22 | 43.45053 | -79.51682 | 4046 ft | 282 kts | 350° |
| 2026-04-25 17:22 | 43.48307 | -79.52622 | 4040 ft | 288 kts | 348° |
| 2026-04-25 17:22 | 43.50244 | -79.53247 | 4037 ft | 284 kts | 349° |
| 2026-04-25 17:23 | 43.52152 | -79.53864 | 4031 ft | 279 kts | 348° |
| 2026-04-25 17:23 | 43.54017 | -79.54519 | 4030 ft | 275 kts | 342° |
| 2026-04-25 17:23 | 43.55588 | -79.55982 | 4032 ft | 277 kts | 309° |
| 2026-04-25 17:23 | 43.56290 | -79.58416 | 4060 ft | 278 kts | 276° |
| 2026-04-25 17:24 | 43.56188 | -79.61069 | 4050 ft | 277 kts | 262° |
| 2026-04-25 17:24 | 43.55885 | -79.63678 | 4052 ft | 275 kts | 262° |
| 2026-04-25 17:24 | 43.55581 | -79.66279 | 4046 ft | 274 kts | 261° |
| 2026-04-25 17:24 | 43.55287 | -79.68836 | 4051 ft | 273 kts | 261° |
| 2026-04-25 17:25 | 43.54990 | -79.71420 | 4050 ft | 273 kts | 262° |
| 2026-04-25 17:25 | 43.54689 | -79.74003 | 4052 ft | 273 kts | 261° |
| 2026-04-25 17:25 | 43.54398 | -79.76587 | 4055 ft | 273 kts | 262° |
| 2026-04-25 17:25 | 43.54106 | -79.79168 | 4049 ft | 272 kts | 261° |
| 2026-04-25 17:26 | 43.53813 | -79.81748 | 4052 ft | 271 kts | 262° |
| 2026-04-25 17:26 | 43.53524 | -79.84332 | 4049 ft | 278 kts | 261° |
| 2026-04-25 17:26 | 43.53214 | -79.87073 | 4053 ft | 302 kts | 261° |
| 2026-04-25 17:26 | 43.52875 | -79.90031 | 4067 ft | 324 kts | 261° |
| 2026-04-25 17:27 | 43.52499 | -79.93220 | 4070 ft | 349 kts | 261° |
| 2026-04-25 17:27 | 43.52083 | -79.96632 | 4062 ft | 371 kts | 260° |
| 2026-04-25 17:27 | 43.51345 | -80.00117 | 4061 ft | 390 kts | 243° |
| 2026-04-25 17:27 | 43.50863 | -80.01199 | 4052 ft | 396 kts | 233° |
| 2026-04-25 17:28 | 43.47170 | -80.05043 | 4056 ft | 406 kts | 207° |
| 2026-04-25 17:28 | 43.44657 | -80.06817 | 4049 ft | 406 kts | 206° |
| 2026-04-25 17:28 | 43.42140 | -80.08602 | 4047 ft | 406 kts | 207° |
| 2026-04-25 17:28 | 43.39767 | -80.10320 | 4045 ft | 366 kts | 208° |
| 2026-04-25 17:29 | 43.37605 | -80.11917 | 4034 ft | 339 kts | 208° |
| 2026-04-25 17:29 | 43.35597 | -80.13388 | 4027 ft | 317 kts | 208° |
| 2026-04-25 17:29 | 43.33711 | -80.14766 | 4029 ft | 298 kts | 208° |
| 2026-04-25 17:29 | 43.31935 | -80.16066 | 4026 ft | 280 kts | 208° |
| 2026-04-25 17:30 | 43.30257 | -80.17288 | 3994 ft | 266 kts | 208° |
| 2026-04-25 17:30 | 43.28663 | -80.18450 | 3980 ft | 253 kts | 208° |
| 2026-04-25 17:30 | 43.27146 | -80.19558 | 3980 ft | 241 kts | 208° |
| 2026-04-25 17:30 | 43.25702 | -80.20613 | 3974 ft | 231 kts | 208° |
| 2026-04-25 17:31 | 43.24303 | -80.21634 | 3970 ft | 226 kts | 207° |
| 2026-04-25 17:31 | 43.22913 | -80.22662 | 3978 ft | 227 kts | 208° |
| 2026-04-25 17:31 | 43.21513 | -80.23680 | 3986 ft | 228 kts | 208° |
| 2026-04-25 17:31 | 43.20123 | -80.24700 | 3975 ft | 226 kts | 207° |
| 2026-04-25 17:32 | 43.18747 | -80.25700 | 3975 ft | 223 kts | 208° |
| 2026-04-25 17:32 | 43.17389 | -80.26685 | 3976 ft | 219 kts | 208° |
| 2026-04-25 17:32 | 43.16054 | -80.27642 | 3981 ft | 215 kts | 208° |
| 2026-04-25 17:32 | 43.14737 | -80.28584 | 3977 ft | 211 kts | 207° |
| 2026-04-25 17:33 | 43.13428 | -80.29522 | 3972 ft | 216 kts | 207° |
| 2026-04-25 17:33 | 43.12074 | -80.30502 | 3985 ft | 226 kts | 208° |
| 2026-04-25 17:33 | 43.11129 | -80.31168 | 3996 ft | 235 kts | 205° |
| 2026-04-25 17:33 | 43.08947 | -80.31488 | 3744 ft | 252 kts | 159° |
| 2026-04-25 17:34 | 43.07895 | -80.30738 | 3564 ft | 254 kts | 143° |
| 2026-04-25 17:34 | 43.06479 | -80.29252 | 3265 ft | 258 kts | 139° |
| 2026-04-25 17:34 | 43.04626 | -80.27321 | 2990 ft | 243 kts | 139° |
| 2026-04-25 17:34 | 43.03402 | -80.25885 | 2972 ft | 221 kts | 123° |
| 2026-04-25 17:35 | 43.02977 | -80.24043 | 2994 ft | 196 kts | 87° |
| 2026-04-25 17:35 | 43.03049 | -80.22819 | 2985 ft | 187 kts | 80° |
| 2026-04-25 17:35 | 43.03197 | -80.21108 | 2980 ft | 178 kts | 81° |
| 2026-04-25 17:35 | 43.03358 | -80.19380 | 2979 ft | 191 kts | 79° |
| 2026-04-25 17:36 | 43.03544 | -80.17496 | 2980 ft | 208 kts | 79° |
| 2026-04-25 17:36 | 43.03744 | -80.15468 | 2991 ft | 223 kts | 79° |
| 2026-04-25 17:36 | 43.03963 | -80.13337 | 2991 ft | 235 kts | 79° |
| 2026-04-25 17:36 | 43.04577 | -80.11258 | 2988 ft | 244 kts | 49° |
| 2026-04-25 17:37 | 43.05905 | -80.09744 | 2983 ft | 254 kts | 37° |
| 2026-04-25 17:37 | 43.07304 | -80.08210 | 2978 ft | 262 kts | 43° |
| 2026-04-25 17:37 | 43.08538 | -80.06367 | 2980 ft | 260 kts | 51° |
| 2026-04-25 17:37 | 43.09661 | -80.04438 | 2931 ft | 262 kts | 50° |
| 2026-04-25 17:38 | 43.10858 | -80.02523 | 2581 ft | 265 kts | 49° |
| 2026-04-25 17:38 | 43.11689 | -80.01268 | 2335 ft | 260 kts | 48° |
| 2026-04-25 17:38 | 43.13251 | -79.98875 | 1867 ft | 249 kts | 49° |
| 2026-04-25 17:38 | 43.14325 | -79.97170 | 1518 ft | 216 kts | 49° |
| 2026-04-25 17:39 | 43.15179 | -79.95804 | 1252 ft | 163 kts | 47° |
| 2026-04-25 17:39 | 43.15840 | -79.94783 | 1045 ft | 126 kts | 45° |
| 2026-04-25 17:39 | 43.16378 | -79.93944 | 828 ft | 113 kts | 44° |
| 2026-04-25 17:39 | 43.16881 | -79.93166 | 781 ft | 90 kts | 49° |
| 2026-04-25 17:40 | 43.17015 | -79.92946 | 776 ft | 0 kts | 52° |
| 2026-04-25 17:49 | 43.17041 | -79.92899 | 776 ft | 12 kts | 50° |
| 2026-04-25 17:49 | 43.17056 | -79.92882 | 776 ft | 12 kts | 77° |
| 2026-04-25 17:49 | 43.16994 | -79.92808 | 777 ft | 2 kts | 150° |
| 2026-04-25 17:50 | 43.16912 | -79.92744 | 779 ft | 16 kts | 150° |
| 2026-04-25 17:50 | 43.16842 | -79.92689 | 780 ft | 15 kts | 150° |
| 2026-04-25 17:50 | 43.16749 | -79.92615 | 787 ft | 16 kts | 150° |
| 2026-04-25 17:50 | 43.16655 | -79.92542 | 792 ft | 16 kts | 150° |
| 2026-04-25 17:51 | 43.16588 | -79.92501 | 793 ft | 12 kts | 189° |
| 2026-04-25 17:51 | 43.16526 | -79.92557 | 792 ft | 9 kts | 232° |
| 2026-04-25 17:51 | 43.16527 | -79.92657 | 790 ft | 8 kts | 294° |
| 2026-04-25 17:51 | 43.16555 | -79.92769 | 790 ft | 16 kts | 288° |
| 2026-04-25 17:52 | 43.16580 | -79.92873 | 787 ft | 16 kts | 287° |
| 2026-04-25 17:52 | 43.16601 | -79.92967 | 783 ft | 16 kts | 287° |
| 2026-04-25 17:52 | 43.16635 | -79.93117 | 782 ft | 12 kts | 284° |
| 2026-04-25 17:52 | 43.16620 | -79.93218 | 784 ft | 30 kts | 233° |
| 2026-04-25 17:53 | 43.16567 | -79.93298 | 788 ft | 14 kts | 230° |
| 2026-04-25 17:53 | 43.16514 | -79.93384 | 789 ft | 16 kts | 229° |
| 2026-04-25 17:53 | 43.16442 | -79.93495 | 787 ft | 16 kts | 223° |
| 2026-04-25 17:53 | 43.16367 | -79.93540 | 784 ft | 10 kts | 179° |
| 2026-04-25 17:54 | 43.16297 | -79.93496 | 783 ft | 16 kts | 133° |
| 2026-04-25 17:54 | 43.16265 | -79.93379 | 784 ft | 3 kts | 104° |
| 2026-04-25 17:54 | 43.16239 | -79.93255 | 785 ft | 16 kts | 110° |
| 2026-04-25 17:54 | 43.16193 | -79.93194 | 786 ft | 10 kts | 147° |
| 2026-04-25 17:55 | 43.16190 | -79.93158 | 787 ft | 5 kts | 36° |
| 2026-04-25 17:55 | 43.16228 | -79.93135 | 787 ft | 17 kts | 18° |
| 2026-04-25 17:56 | 43.16228 | -79.93134 | 795 ft | 0 kts | 17° |